Time;durP1;ratioP1;P1;durP2;ratioP2;P2;SDS_P1;SDS_P2;PMS_P1;PMS_P2;Temp;Humidity;BMP_temperature;BMP_pressure;BME280_temperature;BME280_humidity;BME280_pressure;Samples;Min_cycle;Max_cycle;Signal;HPM_P1;HPM_P2
2022/06/18 00:00:29;;;;;;;5.28;4.17;;;;;;;17.03;71.38;99556.00;1781896;80;21027;-41
2022/06/18 00:02:56;;;;;;;5.50;4.60;;;;;;;17.05;71.23;99554.22;1781935;80;20996;-41
2022/06/18 00:05:24;;;;;;;5.00;4.50;;;;;;;17.02;70.73;99554.44;1781885;80;23143;-41
2022/06/18 00:07:53;;;;;;;5.70;3.90;;;;;;;17.00;70.88;99556.78;1781748;80;21080;-41
2022/06/18 00:10:24;;;;;;;4.67;3.97;;;;;;;17.04;70.88;99558.16;1782080;80;21623;-41
2022/06/18 00:15:38;;;;;;;5.60;4.22;;;;;;;16.97;70.58;99554.06;1782014;80;21041;-41
2022/06/18 00:18:12;;;;;;;5.47;4.85;;;;;;;16.88;70.89;99550.38;1781896;80;21511;-41
2022/06/18 00:20:39;;;;;;;5.58;5.00;;;;;;;16.81;71.15;99557.23;1782078;80;21532;-41
2022/06/18 00:23:12;;;;;;;5.03;4.53;;;;;;;16.75;71.57;99547.28;1781773;80;21512;-41
2022/06/18 00:25:43;;;;;;;5.78;4.85;;;;;;;16.75;71.93;99551.38;1782221;80;20965;-41
2022/06/18 00:28:19;;;;;;;5.65;4.95;;;;;;;16.76;72.12;99542.00;1781871;80;21072;-41
2022/06/18 00:30:46;;;;;;;6.50;5.83;;;;;;;16.75;72.50;99541.05;1781972;80;21136;-41
2022/06/18 00:33:14;;;;;;;7.25;6.10;;;;;;;16.70;72.83;99543.58;1781795;80;21265;-41
2022/06/18 00:35:42;;;;;;;7.45;6.10;;;;;;;16.63;73.09;99544.20;1781974;80;20950;-41
2022/06/18 00:38:17;;;;;;;7.55;5.95;;;;;;;16.59;73.40;99545.58;1781861;80;21326;-41
2022/06/18 00:40:45;;;;;;;7.35;6.12;;;;;;;16.57;73.62;99539.68;1777211;80;21504;-41
2022/06/18 00:43:25;;;;;;;7.85;5.85;;;;;;;16.57;73.84;99536.94;1782048;80;21098;-41
2022/06/18 00:45:59;;;;;;;7.87;6.47;;;;;;;16.55;73.93;99539.31;1782060;80;21029;-41
2022/06/18 00:48:40;;;;;;;7.08;6.37;;;;;;;16.50;74.03;99532.88;1782212;80;21652;-41
2022/06/18 00:51:20;;;;;;;7.65;6.87;;;;;;;16.42;74.16;99532.09;1782071;80;21025;-41
2022/06/18 00:53:54;;;;;;;7.83;7.12;;;;;;;16.37;74.53;99537.96;1754102;80;21583;-41
2022/06/18 00:56:26;;;;;;;8.30;7.40;;;;;;;16.32;74.92;99537.58;1782307;80;21090;-41
2022/06/18 00:59:02;;;;;;;9.30;8.40;;;;;;;16.26;75.37;99529.59;1781595;80;20965;-40
2022/06/18 01:01:33;;;;;;;9.60;8.60;;;;;;;16.20;75.61;99527.05;1782406;80;21040;-41
2022/06/18 01:04:00;;;;;;;9.48;7.80;;;;;;;16.19;75.77;99524.12;1781773;80;21005;-41
2022/06/18 01:06:31;;;;;;;8.05;7.20;;;;;;;16.22;75.79;99527.42;1782033;80;21378;-41
2022/06/18 01:09:08;;;;;;;10.25;7.75;;;;;;;16.28;75.89;99528.59;1781957;80;21117;-41
2022/06/18 01:11:36;;;;;;;10.03;8.55;;;;;;;16.31;75.85;99526.46;1776042;80;20969;-41
2022/06/18 01:14:05;;;;;;;10.40;7.25;;;;;;;16.28;75.94;99525.27;1773501;80;20914;-41
2022/06/18 01:16:35;;;;;;;7.55;6.75;;;;;;;16.33;75.73;99524.09;1773702;80;20961;-41
2022/06/18 01:19:05;;;;;;;8.38;7.58;;;;;;;16.40;75.68;99515.89;1773435;80;21042;-41
2022/06/18 01:21:43;;;;;;;8.75;7.85;;;;;;;16.49;75.34;99514.88;1774194;80;21063;-41
2022/06/18 01:24:19;;;;;;;9.83;8.03;;;;;;;16.51;75.12;99516.03;1773484;80;21008;-41
2022/06/18 01:26:49;;;;;;;8.03;7.25;;;;;;;16.50;75.23;99513.13;1773858;80;21017;-41
2022/06/18 01:29:16;;;;;;;8.60;7.17;;;;;;;16.51;75.13;99511.14;1774004;80;21033;-41
2022/06/18 01:31:46;;;;;;;8.60;7.42;;;;;;;16.55;75.08;99515.27;1773641;80;20950;-41
2022/06/18 01:34:14;;;;;;;10.10;7.95;;;;;;;16.56;74.98;99514.84;1773576;80;21139;-41
2022/06/18 01:36:43;;;;;;;9.18;8.28;;;;;;;16.51;75.09;99508.41;1773558;80;21009;-41
2022/06/18 01:39:14;;;;;;;10.48;7.42;;;;;;;16.46;75.26;99512.33;1773624;80;21029;-41
2022/06/18 01:41:51;;;;;;;;;;;;;;;16.47;75.40;99502.95;1776076;80;21057;-41
2022/06/18 01:44:43;;;;;;;8.80;7.90;;;;;;;16.54;75.33;99509.01;1773704;80;20176;-41
2022/06/18 01:47:22;;;;;;;9.08;8.28;;;;;;;16.49;75.31;99506.67;1773681;80;21208;-41
2022/06/18 01:50:11;;;;;;;9.78;8.30;;;;;;;16.51;75.26;99506.45;1773427;80;21826;-41
2022/06/18 01:52:44;;;;;;;9.63;7.75;;;;;;;16.45;75.06;99500.44;1773527;80;20942;-41
2022/06/18 01:55:20;;;;;;;9.93;7.47;;;;;;;16.39;75.43;99508.84;1772818;80;21012;-41
2022/06/18 01:57:55;;;;;;;7.78;6.97;;;;;;;16.39;75.44;99506.11;1773792;80;20986;-41
2022/06/18 02:00:25;;;;;;;8.90;7.95;;;;;;;16.42;75.57;99499.84;1773870;80;21227;-41
2022/06/18 02:02:54;;;;;;;10.55;8.23;;;;;;;16.44;75.58;99497.50;1773500;80;21021;-41
2022/06/18 02:05:23;;;;;;;8.50;7.70;;;;;;;16.46;75.36;99500.60;1773859;80;21000;-41
2022/06/18 02:07:50;;;;;;;8.03;7.22;;;;;;;16.46;75.31;99500.60;1773849;80;20965;-41
2022/06/18 02:10:47;;;;;;;8.18;7.37;;;;;;;16.45;75.05;99494.96;1774193;80;21626;-43
2022/06/18 02:13:15;;;;;;;9.60;8.18;;;;;;;16.46;75.06;99504.13;1782195;80;23160;-41
2022/06/18 02:15:45;;;;;;;8.58;7.67;;;;;;;16.44;75.15;99500.23;1782296;80;21004;-41
2022/06/18 02:18:14;;;;;;;;;;;;;;;16.45;75.03;99503.17;1780553;80;21020;-41
2022/06/18 02:20:49;;;;;;;8.58;7.40;;;;;;;16.42;74.81;99509.41;1782225;80;20120;-41
2022/06/18 02:23:18;;;;;;;8.78;7.08;;;;;;;16.28;74.99;99516.28;1781517;80;21017;-41
2022/06/18 02:25:46;;;;;;;9.65;7.92;;;;;;;16.20;75.12;99512.01;1782572;80;21703;-41
2022/06/18 02:28:33;;;;;;;8.83;7.92;;;;;;;16.18;75.24;99514.34;1781915;80;20929;-41
2022/06/18 02:31:01;;;;;;;9.75;8.75;;;;;;;16.18;75.51;99512.97;1782032;80;21210;-41
2022/06/18 02:33:42;;;;;;;9.30;8.40;;;;;;;16.17;75.21;99510.07;1782337;80;21007;-41
2022/06/18 02:36:26;;;;;;;9.45;7.92;;;;;;;16.20;75.14;99513.37;1782027;80;21033;-41
2022/06/18 02:38:57;;;;;;;8.85;7.37;;;;;;;16.27;74.97;99512.77;1782121;80;21947;-41
2022/06/18 02:41:23;;;;;;;12.40;8.65;;;;;;;16.30;74.60;99520.20;1753603;80;20972;-41
2022/06/18 02:43:50;;;;;;;9.48;8.40;;;;;;;16.26;74.55;99521.38;1782050;80;21062;-41
2022/06/18 02:46:20;;;;;;;10.85;8.45;;;;;;;16.16;74.52;99518.08;1782265;80;21262;-41
2022/06/18 02:48:48;;;;;;;10.43;8.33;;;;;;;16.17;74.60;99527.84;1782229;80;21012;-41
2022/06/18 02:51:15;;;;;;;9.13;8.18;;;;;;;16.13;74.58;99531.15;1782095;80;21133;-41
2022/06/18 02:53:42;;;;;;;9.68;8.68;;;;;;;16.08;74.63;99531.74;1782015;80;21024;-41
2022/06/18 02:56:13;;;;;;;9.95;8.83;;;;;;;16.03;74.82;99536.82;1782156;80;20996;-41
2022/06/18 02:58:46;;;;;;;11.50;9.25;;;;;;;15.98;74.95;99537.21;1782275;80;21016;-41
2022/06/18 03:01:22;;;;;;;11.05;8.55;;;;;;;15.89;75.07;99543.08;1782147;80;21029;-41
2022/06/18 03:03:52;;;;;;;12.40;9.03;;;;;;;15.85;75.30;99549.72;1782239;80;21125;-41
2022/06/18 03:06:20;;;;;;;;;;;;;;;15.87;75.63;99548.17;1784917;80;21008;-41
2022/06/18 03:08:49;;;;;;;11.20;9.05;;;;;;;15.97;75.75;99554.23;1782141;80;20116;-41
2022/06/18 03:14:09;;;;;;;12.07;10.80;;;;;;;16.06;75.88;99556.56;1773865;80;21512;-41
2022/06/18 03:16:36;;;;;;;11.48;10.08;;;;;;;16.11;75.52;99558.13;1773599;80;21782;-41
2022/06/18 03:19:03;;;;;;;10.88;9.88;;;;;;;16.07;75.28;99557.52;1773712;80;20886;-41
2022/06/18 03:21:45;;;;;;;11.03;9.85;;;;;;;16.07;75.32;99561.63;1773927;80;20969;-41
2022/06/18 03:24:13;;;;;;;12.18;10.58;;;;;;;16.08;75.51;99556.36;1772904;80;21053;-41
2022/06/18 03:26:41;;;;;;;13.88;11.88;;;;;;;16.09;75.39;99556.56;1773783;80;21009;-41
2022/06/18 03:29:10;;;;;;;13.88;11.22;;;;;;;16.06;75.29;99554.62;1773408;80;21183;-41
2022/06/18 03:31:38;;;;;;;12.37;11.15;;;;;;;16.08;75.66;99561.83;1773621;80;21502;-41
2022/06/18 03:34:06;;;;;;;13.30;11.90;;;;;;;16.08;75.32;99561.83;1773762;80;21079;-41
2022/06/18 03:36:36;;;;;;;12.65;11.45;;;;;;;16.09;75.33;99553.83;1773763;80;21021;-41
2022/06/18 03:39:03;;;;;;;17.48;13.20;;;;;;;16.17;75.50;99549.12;1773690;80;21010;-41
2022/06/18 03:41:31;;;;;;;15.83;13.28;;;;;;;16.21;74.88;99546.40;1773639;80;21137;-41
2022/06/18 03:43:59;;;;;;;14.83;12.28;;;;;;;16.19;74.69;99543.27;1773446;80;20921;-41
2022/06/18 03:46:29;;;;;;;15.28;11.60;;;;;;;16.17;74.89;99548.36;1773599;80;21005;-41
2022/06/18 03:49:01;;;;;;;15.38;12.23;;;;;;;16.25;75.03;99553.43;1773516;80;20969;-41
2022/06/18 03:51:33;;;;;;;14.07;12.68;;;;;;;16.30;74.55;99547.56;1772544;80;21041;-41
2022/06/18 03:54:01;;;;;;;14.03;12.50;;;;;;;16.38;74.84;99546.95;1773804;80;21182;-41
2022/06/18 03:56:31;;;;;;;14.13;11.90;;;;;;;16.44;74.54;99542.06;1773613;80;21065;-41
2022/06/18 03:59:00;;;;;;;13.15;11.50;;;;;;;16.44;73.99;99546.75;1773714;80;21006;-42
2022/06/18 04:01:31;;;;;;;13.78;12.13;;;;;;;16.46;73.94;99551.23;1773642;80;21076;-41
2022/06/18 04:04:01;;;;;;;13.15;11.80;;;;;;;16.49;73.92;99549.09;1773703;80;21029;-41
2022/06/18 04:06:40;;;;;;;14.23;12.45;;;;;;;16.47;73.64;99539.11;1773662;80;21362;-41
2022/06/18 04:09:25;;;;;;;13.38;12.07;;;;;;;16.46;73.71;99545.75;1773606;80;21077;-41
2022/06/18 04:11:53;;;;;;;13.85;11.95;;;;;;;16.48;73.47;99558.47;1776801;80;21040;-41
2022/06/18 04:14:20;;;;;;;13.68;12.07;;;;;;;16.52;73.56;99555.13;1781937;80;21008;-41
2022/06/18 04:17:02;;;;;;;14.00;12.60;;;;;;;16.61;73.60;99558.27;1781273;80;21005;-41
2022/06/18 04:19:29;;;;;;;16.20;13.38;;;;;;;16.63;73.52;99555.93;1782235;80;21278;-41
2022/06/18 04:21:57;;;;;;;14.47;12.98;;;;;;;16.71;73.52;99556.68;1782076;80;20969;-42
2022/06/18 04:24:25;;;;;;;13.58;12.30;;;;;;;16.73;73.11;99551.02;1779590;80;21008;-42
2022/06/18 04:26:54;;;;;;;14.10;12.18;;;;;;;16.75;73.10;99560.97;1781827;80;21618;-41
2022/06/18 04:29:22;;;;;;;14.85;13.28;;;;;;;16.85;73.41;99560.16;1782171;80;21024;-42
2022/06/18 04:31:51;;;;;;;16.02;14.05;;;;;;;16.98;73.70;99563.84;1782220;80;21227;-42
2022/06/18 04:34:19;;;;;;;15.23;13.72;;;;;;;17.08;73.36;99569.29;1781848;80;20965;-42
2022/06/18 04:37:05;;;;;;;14.07;12.65;;;;;;;17.17;73.26;99564.16;1781936;80;20976;-42
2022/06/18 04:39:52;;;;;;;13.75;12.30;;;;;;;17.25;72.66;99574.48;1781752;80;21003;-41
2022/06/18 04:42:22;;;;;;;14.10;12.58;;;;;;;17.31;71.86;99568.78;1781983;80;21515;-42
2022/06/18 04:44:53;;;;;;;14.38;12.80;;;;;;;17.34;71.93;99569.34;1781729;80;21538;-42
2022/06/18 04:47:22;;;;;;;15.28;12.47;;;;;;;17.39;71.89;99565.59;1778228;80;20969;-42
2022/06/18 04:49:50;;;;;;;12.33;10.93;;;;;;;17.47;71.84;99575.16;1781977;80;21032;-42
2022/06/18 04:52:19;;;;;;;11.48;10.28;;;;;;;17.50;71.46;99581.20;1782048;80;21048;-42
2022/06/18 04:54:52;;;;;;;11.40;10.43;;;;;;;17.56;71.38;99578.25;1781125;80;21036;-42
2022/06/18 04:57:17;;;;;;;14.20;10.95;;;;;;;17.64;71.65;99579.19;1781741;80;21797;-42
2022/06/18 04:59:47;;;;;;;11.75;10.63;;;;;;;17.69;71.13;99582.10;1781809;80;21017;-42
2022/06/18 05:02:23;;;;;;;11.57;10.38;;;;;;;17.70;71.62;99591.31;1782149;80;21096;-42
2022/06/18 05:04:59;;;;;;;10.72;9.25;;;;;;;17.67;70.92;99588.59;1781609;80;21025;-42
2022/06/18 05:07:37;;;;;;;13.43;9.48;;;;;;;17.67;70.43;99589.34;1768776;80;21087;-42
2022/06/18 05:10:13;;;;;;;11.65;9.00;;;;;;;17.57;70.66;99586.66;1778865;80;21435;-42
2022/06/18 05:12:45;;;;;;;9.68;8.68;;;;;;;17.52;71.43;99593.34;1776790;80;21041;-42
2022/06/18 05:15:17;;;;;;;9.70;8.25;;;;;;;17.59;71.16;99603.51;1777872;80;21080;-42
2022/06/18 05:17:45;;;;;;;10.32;7.87;;;;;;;17.62;70.89;99607.59;1781832;80;21615;-41
2022/06/18 05:20:17;;;;;;;9.43;8.05;;;;;;;17.68;70.83;99603.84;1782148;80;21562;-42
2022/06/18 05:22:46;;;;;;;11.10;8.45;;;;;;;17.74;70.67;99606.36;1751325;80;21258;-42
2022/06/18 05:25:14;;;;;;;9.58;8.38;;;;;;;17.75;70.62;99605.19;1782036;80;21578;-42
2022/06/18 05:27:42;;;;;;;11.33;8.65;;;;;;;17.76;70.48;99602.64;1782093;80;21031;-42
2022/06/18 05:30:18;;;;;;;9.13;8.23;;;;;;;17.79;70.23;99605.94;1774830;80;21044;-42
2022/06/18 05:32:47;;;;;;;10.08;8.38;;;;;;;17.86;70.45;99605.13;1782330;80;21020;-42
2022/06/18 05:35:16;;;;;;;13.30;8.13;;;;;;;17.95;70.43;99601.33;1782079;80;21176;-42
2022/06/18 05:37:43;;;;;;;9.80;8.80;;;;;;;17.99;69.99;99604.83;1781561;80;20976;-42
2022/06/18 05:40:12;;;;;;;10.00;8.55;;;;;;;17.99;70.02;99605.61;1781736;80;21021;-42
2022/06/18 05:42:41;;;;;;;10.13;8.15;;;;;;;18.01;70.00;99607.34;1782296;80;21555;-42
2022/06/18 05:45:09;;;;;;;8.45;7.58;;;;;;;18.07;70.02;99601.62;1781881;80;21064;-42
2022/06/18 05:47:38;;;;;;;5.90;5.33;;;;;;;18.18;69.88;99607.81;1782370;80;21082;-41
2022/06/18 05:50:08;;;;;;;9.48;8.25;;;;;;;18.29;69.34;99611.84;1781679;80;21037;-42
2022/06/18 05:52:36;;;;;;;11.18;8.05;;;;;;;18.30;69.64;99601.03;1782100;80;20960;-42
2022/06/18 05:55:06;;;;;;;9.98;8.58;;;;;;;18.38;69.45;99609.41;1766276;80;21090;-42
2022/06/18 05:57:48;;;;;;;10.08;8.75;;;;;;;18.43;69.20;99614.47;1763190;81;21073;-42
2022/06/18 06:00:26;;;;;;;9.73;7.90;;;;;;;18.49;68.70;99619.69;1764092;81;21212;-42
2022/06/18 06:02:53;;;;;;;9.63;8.13;;;;;;;18.55;68.84;99615.95;1764027;81;21034;-42
2022/06/18 06:05:21;;;;;;;9.55;8.30;;;;;;;18.64;68.74;99612.91;1763805;81;20989;-42
2022/06/18 06:07:49;;;;;;;10.65;8.28;;;;;;;18.73;68.24;99613.83;1764290;81;21054;-42
2022/06/18 06:13:22;;;;;;;10.78;8.08;;;;;;;18.80;68.00;99623.94;1763184;81;23155;-42
2022/06/18 06:15:52;;;;;;;;;;;;;;;18.81;67.27;99626.88;1764139;81;21270;-42
2022/06/18 06:18:20;;;;;;;11.63;8.30;;;;;;;18.86;67.64;99627.81;1761810;81;20169;-42
2022/06/18 06:20:51;;;;;;;10.48;8.43;;;;;;;18.81;68.07;99627.66;1761925;81;21000;-42
2022/06/18 06:23:18;;;;;;;8.83;7.75;;;;;;;18.89;68.07;99628.36;1762094;81;21080;-42
2022/06/18 06:25:46;;;;;;;10.20;8.18;;;;;;;18.92;68.19;99629.72;1761627;81;21814;-42
2022/06/18 06:28:16;;;;;;;13.20;7.58;;;;;;;18.97;67.86;99631.23;1761580;81;22045;-42
2022/06/18 06:30:43;;;;;;;10.20;7.25;;;;;;;19.08;67.63;99631.28;1761701;81;20946;-42
2022/06/18 06:33:10;;;;;;;9.28;7.70;;;;;;;19.27;67.09;99645.00;1761529;81;21050;-42
2022/06/18 06:35:38;;;;;;;11.55;8.50;;;;;;;19.39;66.26;99649.98;1761666;81;21528;-42
2022/06/18 06:38:05;;;;;;;9.13;8.18;;;;;;;19.42;65.81;99645.02;1761769;81;21579;-42
2022/06/18 06:40:33;;;;;;;12.90;8.43;;;;;;;19.48;65.73;99644.78;1761503;81;20990;-42
2022/06/18 06:43:01;;;;;;;8.35;7.42;;;;;;;19.55;65.61;99637.05;1761604;81;21034;-42
2022/06/18 06:45:31;;;;;;;13.70;7.25;;;;;;;19.66;66.15;99638.26;1761553;81;21015;-42
2022/06/18 06:47:59;;;;;;;9.38;7.33;;;;;;;19.70;65.64;99634.89;1761809;81;21077;-42
2022/06/18 06:50:27;;;;;;;10.90;7.60;;;;;;;19.70;65.33;99638.42;1761843;81;21135;-42
2022/06/18 06:52:55;;;;;;;12.33;8.43;;;;;;;19.75;65.74;99642.06;1761664;81;20972;-42
2022/06/18 06:58:20;;;;;;;11.03;8.20;;;;;;;19.86;64.73;99629.53;1761913;81;21065;-42
2022/06/18 07:00:53;;;;;;;9.53;8.23;;;;;;;19.89;64.77;99632.84;1761901;81;21006;-42
2022/06/18 07:03:24;;;;;;;8.45;6.78;;;;;;;19.93;64.60;99636.32;1761755;81;21176;-42
2022/06/18 07:05:51;;;;;;;9.23;7.15;;;;;;;19.96;64.22;99637.64;1761870;81;20953;-42
2022/06/18 07:08:19;;;;;;;12.33;8.10;;;;;;;20.04;63.18;99637.55;1761783;81;21689;-42
2022/06/18 07:10:50;;;;;;;14.83;8.10;;;;;;;20.12;63.67;99639.77;1761627;81;21005;-42
2022/06/18 07:13:18;;;;;;;8.68;7.78;;;;;;;20.12;63.40;99647.24;1761825;81;20994;-42
2022/06/18 07:15:46;;;;;;;9.48;7.67;;;;;;;20.08;62.33;99640.42;1761731;81;21005;-42
2022/06/18 07:18:18;;;;;;;11.48;8.20;;;;;;;20.04;63.26;99639.70;1761403;81;21577;-42
2022/06/18 07:20:45;;;;;;;10.70;6.67;;;;;;;20.09;63.70;99643.33;1761676;81;21601;-42
2022/06/18 07:23:12;;;;;;;8.85;6.50;;;;;;;20.16;62.63;99640.48;1761672;81;21045;-42
2022/06/18 07:27:01;;;;;;;8.90;7.12;;;;;;;20.26;62.78;99636.79;1778657;79;22665;-42
2022/06/18 07:29:30;;;;;;;8.03;6.83;;;;;;;20.25;63.77;99639.36;1738465;82;20927;-42
2022/06/18 07:32:17;;;;;;;10.78;7.05;;;;;;;20.38;63.34;99651.36;1738596;82;21728;-42
2022/06/18 07:34:44;;;;;;;8.38;6.03;;;;;;;20.53;62.89;99638.73;1727144;81;20907;-42
2022/06/18 07:37:12;;;;;;;9.35;6.28;;;;;;;20.72;63.52;99650.42;1738622;82;21638;-42
2022/06/18 07:39:39;;;;;;;8.80;6.30;;;;;;;20.96;61.69;99645.66;1738638;82;20899;-42
2022/06/18 07:42:06;;;;;;;8.50;5.90;;;;;;;21.17;60.44;99650.18;1738764;82;21564;-42
2022/06/18 07:44:34;;;;;;;8.98;5.22;;;;;;;21.33;59.17;99649.48;1738580;82;21144;-42
2022/06/18 07:47:02;;;;;;;7.08;6.15;;;;;;;21.49;58.29;99647.39;1738663;82;20930;-42
2022/06/18 07:49:30;;;;;;;6.65;5.97;;;;;;;21.64;57.51;99641.13;1738910;82;20965;-42
2022/06/18 07:51:57;;;;;;;10.10;5.87;;;;;;;21.79;57.50;99645.73;1738703;82;20942;-42
2022/06/18 07:54:25;;;;;;;7.12;5.87;;;;;;;21.94;57.53;99649.77;1738903;82;21038;-42
2022/06/18 07:56:52;;;;;;;7.10;4.37;;;;;;;22.09;57.40;99638.56;1738895;82;21201;-42
2022/06/18 07:59:20;;;;;;;7.42;5.45;;;;;;;22.19;55.61;99630.45;1738769;82;20959;-42
2022/06/18 08:01:47;;;;;;;7.10;4.55;;;;;;;22.35;55.17;99638.16;1738569;82;21117;-42
2022/06/18 08:04:16;;;;;;;7.10;4.92;;;;;;;22.46;55.31;99640.66;1738492;82;21069;-42
2022/06/18 08:06:44;;;;;;;5.65;4.47;;;;;;;22.60;54.34;99643.06;1748654;81;21081;-42
2022/06/18 08:09:12;;;;;;;4.83;4.30;;;;;;;22.70;53.80;99636.52;1756599;81;21134;-42
2022/06/18 08:11:40;;;;;;;5.10;3.45;;;;;;;22.79;53.99;99642.80;1723134;83;20972;-42
2022/06/18 08:14:07;;;;;;;4.97;3.30;;;;;;;22.90;53.24;99637.14;1723054;83;21028;-42
2022/06/18 08:16:36;;;;;;;4.90;3.08;;;;;;;23.04;52.29;99636.00;1723339;83;21449;-42
2022/06/18 08:19:03;;;;;;;4.17;3.12;;;;;;;23.22;52.24;99633.52;1723159;83;21083;-42
2022/06/18 08:21:37;;;;;;;4.03;3.20;;;;;;;23.35;51.64;99632.15;1723172;83;20917;-42
2022/06/18 08:24:09;;;;;;;3.65;3.10;;;;;;;23.44;50.55;99638.41;1722994;83;20964;-42
2022/06/18 08:26:38;;;;;;;7.28;3.08;;;;;;;23.37;49.85;99627.74;1717432;83;21084;-42
2022/06/18 08:29:06;;;;;;;6.17;3.70;;;;;;;23.33;50.57;99639.49;1715446;83;21045;-41
2022/06/18 08:31:33;;;;;;;6.03;3.27;;;;;;;23.28;50.48;99633.15;1751623;81;21020;-42
2022/06/18 08:34:00;;;;;;;5.97;2.90;;;;;;;23.19;50.25;99641.92;1715566;83;21859;-42
2022/06/18 08:36:27;;;;;;;4.58;2.67;;;;;;;23.22;51.69;99638.27;1715332;83;20925;-42
2022/06/18 08:38:55;;;;;;;5.40;2.95;;;;;;;23.33;52.29;99642.27;1714881;83;20968;-42
2022/06/18 08:41:49;;;;;;;4.15;2.80;;;;;;;23.48;50.93;99638.51;1751203;82;21065;-42
2022/06/18 08:44:56;;;;;;;4.28;2.62;;;;;;;23.54;49.29;99633.98;1665904;83;20989;-42
2022/06/18 08:47:45;;;;;;;3.15;2.52;;;;;;;23.63;49.14;99645.17;1715154;83;21145;-42
2022/06/18 08:50:34;;;;;;;2.62;2.12;;;;;;;23.77;49.29;99628.14;1750798;81;21515;-42
2022/06/18 08:53:18;;;;;;;;;;;;;;;24.00;48.30;99629.83;1717586;83;21028;-42
2022/06/18 08:56:12;;;;;;;3.83;2.02;;;;;;;24.21;48.18;99629.16;1699346;84;20182;-42
2022/06/18 08:58:53;;;;;;;5.20;2.15;;;;;;;24.22;47.08;99627.16;1699206;84;21046;-42
2022/06/18 09:01:32;;;;;;;2.95;2.12;;;;;;;24.29;47.10;99625.56;1693814;84;21425;-42
2022/06/18 09:04:25;;;;;;;2.77;2.05;;;;;;;24.46;47.64;99623.41;1699095;84;20990;-42
2022/06/18 09:07:10;;;;;;;2.77;1.80;;;;;;;24.67;45.27;99629.02;1707062;84;20946;-42
2022/06/18 09:10:07;;;;;;;3.65;1.80;;;;;;;24.86;45.13;99623.02;1707059;84;21017;-42
2022/06/18 09:12:39;;;;;;;2.17;1.77;;;;;;;24.91;44.14;99624.47;1707020;84;21085;-42
2022/06/18 09:15:20;;;;;;;2.85;1.70;;;;;;;24.95;44.66;99622.34;1707340;84;21088;-42
2022/06/18 09:18:01;;;;;;;3.45;1.90;;;;;;;24.99;43.27;99634.07;1693530;84;20950;-42
2022/06/18 09:20:50;;;;;;;4.10;2.02;;;;;;;24.88;42.42;99626.16;1707545;84;21575;-42
2022/06/18 09:23:30;;;;;;;2.10;1.70;;;;;;;24.66;43.50;99633.61;1707117;84;21583;-42
2022/06/18 09:26:00;;;;;;;2.90;2.10;;;;;;;24.45;44.13;99631.55;1707241;84;21056;-42
2022/06/18 09:28:37;;;;;;;4.53;2.00;;;;;;;24.30;44.32;99627.12;1707717;84;21596;-42
2022/06/18 09:31:09;;;;;;;4.12;2.20;;;;;;;24.13;45.18;99632.58;1707277;84;21014;-42
2022/06/18 09:34:06;;;;;;;4.30;2.17;;;;;;;23.94;44.59;99635.74;1707327;84;21013;-42
2022/06/18 09:36:37;;;;;;;2.80;1.92;;;;;;;23.75;45.92;99633.36;1689900;84;21543;-42
2022/06/18 09:39:12;;;;;;;4.20;2.15;;;;;;;23.63;46.99;99638.26;1707216;83;21049;-42
2022/06/18 09:41:53;;;;;;;4.08;2.15;;;;;;;23.64;45.40;99630.13;1707169;83;20934;-42
2022/06/18 09:44:51;;;;;;;3.58;2.15;;;;;;;23.69;46.77;99625.43;1707392;84;20977;-42
2022/06/18 09:47:41;;;;;;;3.55;1.92;;;;;;;23.78;45.13;99624.77;1707462;84;21603;-42
2022/06/18 09:50:38;;;;;;;2.12;1.90;;;;;;;23.77;44.89;99619.83;1707310;83;20989;-42
2022/06/18 09:53:28;;;;;;;4.95;1.90;;;;;;;23.70;45.17;99624.22;1707462;84;21564;-42
2022/06/18 09:56:02;;;;;;;3.05;2.12;;;;;;;23.68;45.33;99626.64;1707243;84;21130;-42
2022/06/18 09:58:32;;;;;;;3.30;1.90;;;;;;;23.70;45.09;99622.05;1707349;84;21559;-42
2022/06/18 10:01:00;;;;;;;4.47;2.22;;;;;;;23.76;45.04;99601.70;1707101;84;20974;-42
2022/06/18 10:09:06;;;;;;;4.65;1.57;;;;;;;24.21;42.57;99603.44;1707443;84;21265;-42
2022/06/18 10:11:34;;;;;;;3.00;1.50;;;;;;;24.30;42.38;99608.33;1707405;84;21509;-42
2022/06/18 10:14:21;;;;;;;4.08;1.80;;;;;;;24.39;42.09;99609.20;1707303;84;21550;-42
2022/06/18 10:17:15;;;;;;;6.20;1.90;;;;;;;24.53;42.03;99603.78;1707153;84;20985;-42
2022/06/18 10:19:51;;;;;;;3.95;2.50;;;;;;;24.55;41.58;99599.32;1707113;83;21014;-42
2022/06/18 10:22:43;;;;;;;3.25;2.20;;;;;;;24.51;41.44;99596.51;1707250;84;21528;-42
2022/06/18 10:25:33;;;;;;;1.77;1.55;;;;;;;24.44;40.78;99604.47;1706984;84;21549;-42
2022/06/18 10:28:31;;;;;;;5.33;1.65;;;;;;;24.36;41.33;99605.91;1707143;84;20982;-42
2022/06/18 10:31:35;;;;;;;6.40;2.02;;;;;;;24.23;40.85;99607.94;1566600;84;21032;-42
2022/06/18 10:34:43;;;;;;;2.92;1.80;;;;;;;24.11;41.50;99606.70;1711013;82;21041;-42
2022/06/18 10:37:34;;;;;;;4.37;1.40;;;;;;;24.08;42.21;99603.44;1677808;85;21834;-42
2022/06/18 10:40:35;;;;;;;2.77;1.70;;;;;;;24.23;40.84;99601.80;1677502;85;21605;-42
2022/06/18 10:43:21;;;;;;;2.15;1.50;;;;;;;24.43;42.10;99604.91;1677497;85;21522;-42
2022/06/18 10:45:55;;;;;;;2.17;1.25;;;;;;;24.63;40.46;99608.96;1677420;85;21049;-42
2022/06/18 10:48:29;;;;;;;1.57;1.20;;;;;;;24.83;40.23;99596.80;1677837;85;21058;-42
2022/06/18 10:50:58;;;;;;;4.05;1.20;;;;;;;25.06;40.11;99590.22;1677823;85;21273;-42
2022/06/18 10:53:30;;;;;;;1.70;1.10;;;;;;;25.37;39.64;99583.30;1679248;85;21551;-42
2022/06/18 10:56:08;;;;;;;2.15;1.20;;;;;;;25.74;39.07;99593.24;1705882;82;21536;-43
2022/06/18 10:58:35;;;;;;;2.75;1.30;;;;;;;25.94;38.39;99586.69;1712720;82;21044;-43
2022/06/18 11:01:07;;;;;;;1.42;1.32;;;;;;;25.98;38.42;99592.87;1631140;84;21037;-43
2022/06/18 11:03:35;;;;;;;1.50;1.10;;;;;;;25.95;37.30;99594.55;1705301;84;21203;-42
2022/06/18 11:06:05;;;;;;;2.30;1.00;;;;;;;25.84;36.26;99594.83;1677424;84;21496;-42
2022/06/18 11:08:33;;;;;;;2.02;1.20;;;;;;;25.73;36.38;99598.63;1706512;84;21101;-42
2022/06/18 11:11:06;;;;;;;1.62;1.00;;;;;;;25.70;36.15;99588.45;1707002;83;21013;-42
2022/06/18 11:13:44;;;;;;;2.33;1.20;;;;;;;25.80;36.17;99588.65;1706121;84;21046;-42
2022/06/18 11:16:18;;;;;;;4.40;1.10;;;;;;;25.90;36.88;99586.06;1706817;84;21912;-42
2022/06/18 11:18:56;;;;;;;1.60;1.00;;;;;;;26.06;36.69;99587.78;1706874;84;20911;-43
2022/06/18 11:21:33;;;;;;;1.35;1.15;;;;;;;26.19;37.31;99589.20;1707065;84;21050;-43
2022/06/18 11:24:15;;;;;;;1.00;1.00;;;;;;;26.24;37.21;99591.41;1707038;84;21037;-42
2022/06/18 11:26:57;;;;;;;3.25;1.40;;;;;;;26.15;35.13;99598.92;1704541;84;21086;-43
2022/06/18 11:29:43;;;;;;;2.05;1.70;;;;;;;26.13;35.97;99601.41;1699245;83;21145;-42
2022/06/18 11:32:26;;;;;;;2.20;1.32;;;;;;;26.34;34.97;99604.09;1672766;84;21615;-43
2022/06/18 11:35:10;;;;;;;3.70;2.60;;;;;;;26.75;34.23;99596.41;1699452;84;21114;-43
2022/06/18 11:37:39;;;;;;;1.25;1.00;;;;;;;27.23;33.37;99598.88;1699399;83;21374;-43
2022/06/18 11:40:12;;;;;;;1.20;1.00;;;;;;;27.71;33.28;99585.91;1699495;84;21090;-43
2022/06/18 11:42:56;;;;;;;2.47;0.90;;;;;;;28.08;32.84;99591.45;1699415;83;23257;-43
2022/06/18 11:45:53;;;;;;;1.47;1.10;;;;;;;28.53;32.40;99586.86;1695411;83;20991;-43
2022/06/18 11:48:33;;;;;;;0.90;0.90;;;;;;;29.03;31.28;99576.70;1699767;84;20946;-43
2022/06/18 11:51:23;;;;;;;1.60;0.90;;;;;;;29.50;30.35;99577.78;1699227;84;21097;-43
2022/06/18 11:54:20;;;;;;;3.08;1.00;;;;;;;29.52;29.82;99575.28;1699295;84;21018;-43
2022/06/18 11:57:16;;;;;;;1.25;1.00;;;;;;;29.46;29.78;99569.60;1700959;83;21118;-43
2022/06/18 11:59:54;;;;;;;1.15;1.05;;;;;;;29.51;30.02;99571.72;1699148;84;21034;-43
2022/06/18 12:02:35;;;;;;;3.15;0.88;;;;;;;29.90;28.91;99570.17;1699300;84;21058;-43
2022/06/18 12:05:08;;;;;;;1.87;0.85;;;;;;;30.36;28.23;99568.88;1691503;84;21548;-43
2022/06/18 12:07:47;;;;;;;0.80;0.75;;;;;;;30.41;25.98;99554.96;1699365;83;21085;-43
2022/06/18 12:10:16;;;;;;;2.12;0.85;;;;;;;30.24;27.45;99563.78;1699462;84;21632;-43
2022/06/18 12:13:05;;;;;;;1.47;0.90;;;;;;;30.32;27.57;99559.93;1699297;83;20986;-43
2022/06/18 12:15:43;;;;;;;4.00;1.15;;;;;;;30.68;27.74;99547.42;1701680;83;20935;-43
2022/06/18 12:18:41;;;;;;;1.65;0.72;;;;;;;31.14;27.45;99548.16;1699612;84;20973;-43
2022/06/18 12:21:22;;;;;;;0.85;0.60;;;;;;;31.16;27.24;99548.45;1699616;84;21050;-43